createdAt,value
2023-02-18T00:05:31.659Z,10.97
2023-02-18T00:12:33.184Z,11.04
2023-02-18T00:19:34.756Z,10.85
2023-02-18T00:26:36.439Z,10.97
2023-02-18T00:33:38.141Z,10.86
2023-02-18T00:40:40.258Z,10.76
2023-02-18T00:47:41.937Z,10.67
2023-02-18T00:54:43.594Z,10.78
2023-02-18T01:01:45.611Z,10.64
2023-02-18T01:08:47.188Z,10.44
2023-02-18T01:15:48.913Z,10.53
2023-02-18T01:22:50.573Z,10.22
2023-02-18T01:29:52.270Z,10.38
2023-02-18T01:36:53.937Z,10.30
2023-02-18T01:44:32.971Z,10.18
2023-02-18T01:51:39.843Z,10.28
2023-02-18T01:58:41.461Z,10.38
2023-02-18T02:05:43.107Z,10.05
2023-02-18T02:12:51.467Z,10.21
2023-02-18T02:20:11.974Z,10.18
2023-02-18T02:27:21.490Z,10.15
2023-02-18T02:34:31.901Z,10.08
2023-02-18T02:41:46.395Z,9.92
2023-02-18T02:49:08.904Z,10.12
2023-02-18T02:56:18.139Z,10.00
2023-02-18T03:03:39.023Z,10.06
2023-02-18T03:11:09.899Z,9.94
2023-02-18T03:18:20.124Z,9.93
2023-02-18T03:25:22.113Z,9.97
2023-02-18T03:32:24.204Z,9.91
2023-02-18T03:39:27.577Z,9.96
2023-02-18T03:46:29.277Z,9.99
2023-02-18T03:53:31.424Z,10.02
2023-02-18T04:00:33.135Z,9.97
2023-02-18T04:07:35.030Z,10.08
2023-02-18T04:14:36.607Z,9.93
2023-02-18T04:21:38.198Z,9.96
2023-02-18T04:28:40.085Z,9.73
2023-02-18T04:35:42.126Z,9.88
2023-02-18T04:42:43.784Z,9.74
2023-02-18T04:49:45.354Z,9.77
2023-02-18T04:56:46.956Z,9.65
2023-02-18T05:03:48.593Z,9.60
2023-02-18T05:10:50.328Z,9.61
2023-02-18T05:17:51.956Z,9.53
2023-02-18T05:24:53.502Z,9.72
2023-02-18T05:31:55.300Z,9.81
2023-02-18T05:38:57.001Z,9.91
2023-02-18T05:45:58.537Z,10.00
2023-02-18T05:53:00.274Z,9.94
2023-02-18T06:00:02.017Z,10.04
2023-02-18T06:07:06.741Z,10.09
2023-02-18T06:14:08.344Z,10.10
2023-02-18T06:21:09.920Z,10.12
2023-02-18T06:28:11.518Z,10.19
2023-02-18T06:35:13.204Z,10.19
2023-02-18T06:42:14.775Z,10.23
2023-02-18T06:49:16.353Z,10.34
2023-02-18T06:56:18.070Z,10.49
2023-02-18T07:03:19.773Z,10.69
2023-02-18T07:10:21.452Z,10.42
2023-02-18T07:17:23.034Z,10.61
2023-02-18T07:24:24.652Z,10.56
2023-02-18T07:31:26.307Z,10.71
2023-02-18T07:38:28.242Z,10.70
2023-02-18T07:45:29.836Z,10.69
2023-02-18T07:52:31.531Z,10.83
2023-02-18T07:59:33.212Z,10.94
2023-02-18T08:06:42.718Z,10.94
2023-02-18T08:13:46.916Z,10.84
2023-02-18T08:20:48.860Z,10.74
2023-02-18T08:27:50.390Z,10.78
2023-02-18T08:34:51.930Z,10.98
2023-02-18T08:41:53.493Z,10.85
2023-02-18T08:48:55.055Z,10.74
2023-02-18T08:55:56.576Z,10.89
2023-02-18T09:02:58.217Z,10.82
2023-02-18T09:09:59.874Z,10.66
2023-02-18T09:17:01.706Z,10.92
2023-02-18T09:24:03.565Z,10.71
2023-02-18T09:31:09.950Z,10.96
2023-02-18T09:38:12.489Z,11.03
2023-02-18T09:45:14.156Z,11.13
2023-02-18T09:52:29.914Z,10.75
2023-02-18T09:59:31.618Z,10.81
2023-02-18T10:06:34.094Z,10.71
2023-02-18T10:13:35.709Z,10.83
2023-02-18T10:20:37.282Z,10.76
2023-02-18T10:27:39.005Z,10.82
2023-02-18T10:34:47.623Z,10.72
2023-02-18T10:42:08.465Z,10.49
2023-02-18T10:49:29.724Z,10.82
2023-02-18T10:56:48.670Z,10.66
2023-02-18T11:03:55.176Z,10.90
2023-02-18T11:10:57.116Z,10.89
2023-02-18T11:18:11.526Z,11.19
2023-02-18T11:25:33.081Z,11.01
2023-02-18T11:32:35.408Z,11.09
2023-02-18T11:39:36.962Z,11.04
2023-02-18T11:46:38.562Z,10.92
2023-02-18T11:54:01.302Z,10.96
2023-02-18T12:01:02.920Z,11.03
2023-02-18T12:08:15.459Z,11.18
2023-02-18T12:15:22.185Z,11.18
2023-02-18T12:22:43.011Z,11.40
2023-02-18T12:30:09.006Z,11.57
2023-02-18T12:37:46.311Z,11.72
2023-02-18T12:45:06.457Z,11.91
2023-02-18T12:52:26.089Z,11.95
2023-02-18T13:00:17.115Z,12.16
2023-02-18T13:07:33.576Z,12.49
2023-02-18T13:14:57.426Z,12.52
2023-02-18T13:22:00.557Z,12.63
2023-02-18T13:29:14.102Z,12.78
2023-02-18T13:36:22.079Z,12.82
2023-02-18T13:43:23.540Z,12.82
2023-02-18T13:50:29.157Z,12.88
2023-02-18T13:57:31.978Z,12.82
2023-02-18T14:04:36.489Z,13.09
2023-02-18T14:11:48.024Z,12.96
2023-02-18T14:18:57.881Z,13.12
2023-02-18T14:26:14.867Z,13.17
2023-02-18T14:33:16.538Z,13.02
2023-02-18T14:40:26.524Z,12.99
2023-02-18T14:47:41.844Z,13.10
2023-02-18T14:54:44.351Z,13.09
2023-02-18T15:01:46.758Z,13.16
2023-02-18T15:08:48.389Z,13.07
2023-02-18T15:15:52.241Z,13.13
2023-02-18T15:22:53.858Z,13.06
2023-02-18T15:30:20.162Z,13.10
2023-02-18T15:37:21.779Z,12.94
2023-02-18T15:44:24.836Z,13.20
2023-02-18T15:51:28.673Z,13.18
2023-02-18T15:58:31.430Z,13.13
2023-02-18T16:05:37.284Z,13.27
2023-02-18T16:12:39.241Z,12.99
2023-02-18T16:20:02.905Z,13.17
2023-02-18T16:27:07.494Z,13.05
2023-02-18T16:34:09.294Z,12.97
2023-02-18T16:41:14.314Z,12.91
2023-02-18T16:48:37.276Z,12.42
2023-02-18T16:55:38.899Z,12.15
2023-02-18T17:02:40.579Z,11.73
2023-02-18T17:09:42.127Z,11.58
2023-02-18T17:16:44.832Z,11.51
2023-02-18T17:23:46.549Z,11.53
2023-02-18T17:30:56.562Z,11.70
2023-02-18T17:37:58.369Z,11.40
2023-02-18T17:45:01.382Z,11.35
2023-02-18T17:52:03.103Z,11.58
2023-02-18T17:59:04.686Z,11.48
2023-02-18T18:06:09.990Z,11.73
2023-02-18T18:13:19.290Z,11.31
2023-02-18T18:20:20.930Z,11.54
2023-02-18T18:27:22.528Z,11.57
2023-02-18T18:34:24.102Z,11.65
2023-02-18T18:41:25.616Z,11.43
2023-02-18T18:48:27.418Z,11.40
2023-02-18T18:55:33.851Z,11.34
2023-02-18T19:02:35.524Z,11.06
2023-02-18T19:09:37.049Z,10.99
2023-02-18T19:16:39.103Z,10.91
2023-02-18T19:23:40.752Z,11.01
2023-02-18T19:30:42.526Z,11.03
2023-02-18T19:37:44.307Z,10.81
2023-02-18T19:44:45.921Z,10.80
2023-02-18T19:51:47.471Z,10.84
2023-02-18T19:58:48.982Z,10.89
2023-02-18T20:05:50.531Z,10.75
2023-02-18T20:12:53.353Z,10.76
2023-02-18T20:19:54.987Z,10.91
2023-02-18T20:26:57.471Z,10.81
2023-02-18T20:33:59.063Z,10.75
2023-02-18T20:41:05.264Z,10.70
2023-02-18T20:48:06.824Z,10.78
2023-02-18T20:55:08.496Z,10.65
2023-02-18T21:02:12.613Z,10.78
2023-02-18T21:09:14.772Z,10.74
2023-02-18T21:16:16.640Z,10.71
2023-02-18T21:23:18.244Z,10.73
2023-02-18T21:30:19.930Z,10.73
2023-02-18T21:37:21.618Z,10.77
2023-02-18T21:44:30.038Z,10.38
2023-02-18T21:51:57.979Z,10.58
2023-02-18T21:58:59.623Z,10.42
2023-02-18T22:06:01.152Z,10.58
2023-02-18T22:13:02.733Z,10.59
2023-02-18T22:20:08.255Z,10.49
2023-02-18T22:27:09.982Z,10.36
2023-02-18T22:34:11.517Z,10.45
2023-02-18T22:41:13.616Z,10.51
2023-02-18T22:48:15.177Z,10.62
2023-02-18T22:55:16.713Z,10.40
2023-02-18T23:02:19.759Z,10.46
2023-02-18T23:09:23.731Z,10.30
2023-02-18T23:16:25.336Z,10.29
2023-02-18T23:23:26.897Z,10.23
2023-02-18T23:30:28.531Z,10.19
2023-02-18T23:37:56.334Z,10.03
2023-02-18T23:44:57.894Z,10.11
2023-02-18T23:51:59.745Z,10.12
2023-02-18T23:59:04.462Z,10.01
